createdAt,value
2018-05-23T00:01:13.344Z,15.90
2018-05-23T00:03:40.115Z,11.30
2018-05-23T00:06:06.897Z,9.33
2018-05-23T00:08:34.339Z,11.60
2018-05-23T00:11:01.145Z,9.90
2018-05-23T00:13:27.920Z,8.73
2018-05-23T00:15:54.705Z,11.13
2018-05-23T00:18:21.485Z,9.40
2018-05-23T00:20:48.252Z,12.20
2018-05-23T00:23:15.429Z,11.07
2018-05-23T00:25:42.220Z,11.53
2018-05-23T00:28:08.967Z,9.33
2018-05-23T00:30:35.756Z,8.40
2018-05-23T00:33:02.535Z,9.33
2018-05-23T00:35:29.349Z,9.60
2018-05-23T00:37:56.105Z,10.13
2018-05-23T00:40:22.869Z,14.50
2018-05-23T00:42:49.654Z,8.07
2018-05-23T00:45:16.416Z,11.33
2018-05-23T00:47:43.189Z,12.00
2018-05-23T00:50:10.004Z,12.47
2018-05-23T00:52:36.737Z,14.93
2018-05-23T00:55:09.240Z,15.10
2018-05-23T00:57:36.048Z,13.50
2018-05-23T01:00:02.836Z,11.07
2018-05-23T01:02:29.613Z,7.97
2018-05-23T01:04:56.357Z,14.43
2018-05-23T01:07:23.147Z,9.77
2018-05-23T01:09:49.888Z,13.80
2018-05-23T01:12:16.685Z,11.07
2018-05-23T01:14:43.422Z,9.23
2018-05-23T01:17:10.197Z,8.60
2018-05-23T01:19:36.949Z,13.60
2018-05-23T01:22:03.743Z,11.93
2018-05-23T01:24:30.523Z,13.80
2018-05-23T01:26:57.304Z,12.50
2018-05-23T01:29:24.077Z,15.10
2018-05-23T01:31:50.844Z,14.50
2018-05-23T01:34:17.626Z,13.27
2018-05-23T01:36:44.381Z,23.10
2018-05-23T01:39:11.196Z,19.30
2018-05-23T01:41:37.949Z,21.27
2018-05-23T01:44:05.342Z,19.00
2018-05-23T01:46:32.120Z,18.77
2018-05-23T01:49:04.857Z,20.97
2018-05-23T01:51:31.605Z,26.43
2018-05-23T01:53:58.420Z,28.27
2018-05-23T01:56:25.757Z,19.50
2018-05-23T01:58:52.552Z,22.13
2018-05-23T02:01:19.345Z,25.53
2018-05-23T02:03:47.147Z,23.60
2018-05-23T02:06:13.930Z,24.73
2018-05-23T02:08:40.734Z,24.10
2018-05-23T02:11:07.505Z,22.47
2018-05-23T02:13:34.300Z,25.27
2018-05-23T02:16:01.052Z,25.50
2018-05-23T02:18:27.884Z,23.23
2018-05-23T02:20:54.635Z,28.97
2018-05-23T02:23:21.398Z,19.97
2018-05-23T02:25:48.178Z,23.67
2018-05-23T02:28:14.936Z,22.93
2018-05-23T02:30:41.740Z,23.37
2018-05-23T02:33:08.490Z,25.30
2018-05-23T02:35:35.286Z,22.93
2018-05-23T02:38:02.052Z,20.07
2018-05-23T02:40:28.843Z,18.07
2018-05-23T02:42:55.822Z,20.00
2018-05-23T02:45:22.629Z,18.83
2018-05-23T02:47:49.450Z,21.43
2018-05-23T02:50:16.243Z,17.80
2018-05-23T02:52:43.757Z,26.57
2018-05-23T02:55:11.211Z,22.07
2018-05-23T02:57:37.988Z,28.50
2018-05-23T03:00:04.798Z,21.10
2018-05-23T03:02:31.572Z,23.97
2018-05-23T03:04:58.368Z,22.63
2018-05-23T03:07:25.140Z,25.83
2018-05-23T03:09:51.924Z,30.00
2018-05-23T03:12:18.729Z,22.97
2018-05-23T03:14:45.477Z,26.07
2018-05-23T03:17:12.259Z,24.30
2018-05-23T03:19:39.446Z,19.73
2018-05-23T03:22:06.345Z,23.37
2018-05-23T03:24:33.276Z,22.43
2018-05-23T03:27:00.077Z,20.40
2018-05-23T03:29:26.884Z,24.50
2018-05-23T03:31:53.675Z,21.00
2018-05-23T03:34:20.439Z,21.07
2018-05-23T03:36:47.234Z,24.70
2018-05-23T03:39:14.022Z,24.10
2018-05-23T03:41:40.835Z,17.53
2018-05-23T03:44:07.615Z,21.50
2018-05-23T03:46:34.391Z,20.00
2018-05-23T03:49:01.168Z,18.80
2018-05-23T03:51:28.275Z,20.67
2018-05-23T03:53:55.021Z,21.83
2018-05-23T03:56:22.460Z,22.93
2018-05-23T03:58:49.281Z,16.57
2018-05-23T04:01:22.175Z,15.13
2018-05-23T04:03:54.708Z,15.70
2018-05-23T04:06:27.276Z,22.67
2018-05-23T04:08:54.841Z,18.40
2018-05-23T04:11:21.629Z,17.30
2018-05-23T04:13:48.411Z,20.90
2018-05-23T04:16:15.180Z,20.17
2018-05-23T04:18:42.748Z,19.27
2018-05-23T04:21:09.799Z,24.73
2018-05-23T04:23:36.620Z,25.90
2018-05-23T04:26:03.437Z,29.10
2018-05-23T04:28:30.234Z,21.23
2018-05-23T04:30:57.016Z,21.70
2018-05-23T04:33:23.828Z,19.63
2018-05-23T04:35:50.580Z,20.17
2018-05-23T04:38:17.347Z,28.00
2018-05-23T04:40:44.149Z,19.50
2018-05-23T04:43:10.948Z,20.77
2018-05-23T04:45:38.428Z,17.50
2018-05-23T04:48:05.193Z,33.10
2018-05-23T04:50:32.021Z,22.57
2018-05-23T04:52:58.804Z,18.63
2018-05-23T04:55:25.908Z,23.93
2018-05-23T04:57:52.694Z,17.33
2018-05-23T05:00:19.527Z,15.67
2018-05-23T05:02:46.293Z,17.67
2018-05-23T05:05:13.136Z,15.90
2018-05-23T05:07:39.947Z,14.87
2018-05-23T05:10:06.911Z,19.20
2018-05-23T05:12:34.293Z,13.47
2018-05-23T05:15:01.143Z,17.40
2018-05-23T05:17:27.907Z,13.17
2018-05-23T05:19:54.694Z,15.90
2018-05-23T05:22:21.463Z,17.30
2018-05-23T05:24:48.311Z,15.40
2018-05-23T05:27:15.124Z,13.87
2018-05-23T05:29:41.877Z,20.40
2018-05-23T05:32:08.673Z,11.73
2018-05-23T05:34:35.417Z,13.53
2018-05-23T05:37:02.220Z,14.83
2018-05-23T05:39:29.553Z,11.70
2018-05-23T05:41:57.114Z,11.57
2018-05-23T05:44:23.859Z,12.67
2018-05-23T05:46:50.683Z,12.37
2018-05-23T05:49:17.442Z,15.27
2018-05-23T05:51:44.257Z,14.60
2018-05-23T05:54:11.225Z,13.53
2018-05-23T05:56:38.021Z,10.90
2018-05-23T05:59:04.780Z,12.13
2018-05-23T06:01:31.567Z,21.40
2018-05-23T06:03:58.347Z,11.17
2018-05-23T06:06:25.151Z,19.37
2018-05-23T06:08:51.956Z,9.53
2018-05-23T06:11:18.721Z,11.00
2018-05-23T06:13:45.513Z,11.23
2018-05-23T06:16:12.273Z,11.03
2018-05-23T06:18:39.798Z,15.40
2018-05-23T06:21:06.540Z,9.00
2018-05-23T06:23:33.340Z,12.63
2018-05-23T06:26:00.094Z,8.97
2018-05-23T06:28:26.883Z,10.17
2018-05-23T06:30:53.645Z,11.33
2018-05-23T06:33:20.443Z,8.67
2018-05-23T06:35:47.215Z,17.67
2018-05-23T06:38:13.996Z,9.17
2018-05-23T06:40:40.765Z,6.90
2018-05-23T06:43:08.145Z,6.60
2018-05-23T06:45:34.913Z,7.70
2018-05-23T06:48:01.728Z,8.63
2018-05-23T06:50:28.486Z,10.30
2018-05-23T06:52:55.313Z,9.30
2018-05-23T06:55:22.084Z,10.57
2018-05-23T06:57:48.846Z,10.53
2018-05-23T07:00:15.675Z,10.07
2018-05-23T07:02:42.417Z,9.37
2018-05-23T07:05:09.201Z,9.30
2018-05-23T07:07:35.969Z,6.77
2018-05-23T07:10:02.768Z,7.37
2018-05-23T07:12:29.523Z,7.30
2018-05-23T07:14:56.885Z,6.30
2018-05-23T07:17:23.625Z,9.13
2018-05-23T07:19:50.419Z,10.27
2018-05-23T07:22:17.172Z,8.83
2018-05-23T07:24:44.642Z,5.67
2018-05-23T07:27:11.403Z,8.77
2018-05-23T07:29:38.203Z,6.00
2018-05-23T07:32:05.319Z,10.00
2018-05-23T07:34:32.085Z,10.70
2018-05-23T07:36:59.328Z,8.13
2018-05-23T07:39:26.085Z,8.53
2018-05-23T07:41:52.837Z,10.03
2018-05-23T07:44:19.609Z,12.53
2018-05-23T07:46:46.385Z,8.53
2018-05-23T07:49:13.175Z,13.30
2018-05-23T07:51:39.968Z,11.10
2018-05-23T07:54:06.719Z,6.37
2018-05-23T07:56:33.583Z,9.00
2018-05-23T07:59:00.295Z,7.70
2018-05-23T08:01:27.085Z,5.90
2018-05-23T08:03:53.837Z,10.27
2018-05-23T08:06:21.361Z,7.40
2018-05-23T08:08:48.241Z,6.90
2018-05-23T08:11:15.603Z,5.40
2018-05-23T08:13:42.342Z,8.10
2018-05-23T08:16:09.687Z,7.70
2018-05-23T08:18:36.458Z,6.90
2018-05-23T08:21:03.254Z,7.77
2018-05-23T08:23:30.018Z,11.00
2018-05-23T08:25:56.837Z,8.73
2018-05-23T08:28:23.574Z,7.90
2018-05-23T08:30:50.362Z,7.70
2018-05-23T08:33:17.103Z,8.27
2018-05-23T08:35:43.872Z,6.87
2018-05-23T08:38:10.673Z,5.97
2018-05-23T08:40:37.429Z,8.47
2018-05-23T08:43:04.688Z,10.97
2018-05-23T08:45:31.444Z,12.07
2018-05-23T08:47:58.243Z,10.23
2018-05-23T08:50:25.455Z,6.43
2018-05-23T08:52:52.268Z,14.53
2018-05-23T08:55:19.036Z,6.70
2018-05-23T08:57:45.844Z,5.20
2018-05-23T09:00:12.591Z,9.63
2018-05-23T09:02:39.380Z,9.30
2018-05-23T09:05:06.182Z,5.93
2018-05-23T09:07:32.978Z,6.57
2018-05-23T09:09:59.722Z,5.07
2018-05-23T09:12:26.592Z,6.10
2018-05-23T09:14:53.276Z,7.53
2018-05-23T09:17:20.082Z,4.70
2018-05-23T09:19:47.509Z,7.20
2018-05-23T09:22:14.253Z,3.93
2018-05-23T09:24:41.028Z,5.77
2018-05-23T09:27:07.805Z,8.60
2018-05-23T09:29:34.810Z,4.03
2018-05-23T09:32:02.177Z,7.33
2018-05-23T09:34:28.937Z,5.27
2018-05-23T09:36:55.699Z,5.57
2018-05-23T09:39:22.492Z,4.87
2018-05-23T09:41:49.244Z,5.97
2018-05-23T09:44:16.041Z,8.97
2018-05-23T09:46:42.809Z,5.83
2018-05-23T09:49:09.589Z,11.93
2018-05-23T09:51:36.345Z,12.27
2018-05-23T09:54:03.257Z,9.47
2018-05-23T09:56:29.998Z,5.70
2018-05-23T09:58:56.792Z,5.37
2018-05-23T10:01:23.540Z,7.07
2018-05-23T10:03:50.307Z,4.20
2018-05-23T10:06:17.062Z,5.10
2018-05-23T10:08:43.845Z,7.67
2018-05-23T10:11:10.679Z,6.40
2018-05-23T10:13:37.440Z,3.63
2018-05-23T10:16:04.224Z,5.33
2018-05-23T10:18:30.993Z,4.73
2018-05-23T10:20:57.804Z,6.47
2018-05-23T10:23:24.545Z,6.67
2018-05-23T10:25:51.309Z,4.90
2018-05-23T10:28:18.381Z,4.37
2018-05-23T10:30:45.164Z,4.97
2018-05-23T10:33:11.907Z,4.30
2018-05-23T10:35:38.684Z,9.17
2018-05-23T10:38:05.437Z,5.43
2018-05-23T10:40:32.228Z,3.93
2018-05-23T10:42:59.104Z,5.23
2018-05-23T10:45:25.891Z,7.10
2018-05-23T10:47:52.657Z,7.00
2018-05-23T10:50:19.455Z,5.43
2018-05-23T10:52:46.223Z,8.20
2018-05-23T10:55:13.044Z,6.20
2018-05-23T10:57:39.796Z,3.50
2018-05-23T11:00:06.628Z,9.20
2018-05-23T11:02:33.391Z,4.70
2018-05-23T11:05:00.159Z,6.00
2018-05-23T11:07:26.940Z,7.77
2018-05-23T11:09:53.690Z,5.03
2018-05-23T11:12:20.487Z,2.90
2018-05-23T11:14:48.202Z,4.30
2018-05-23T11:17:14.969Z,4.50
2018-05-23T11:19:41.713Z,4.90
2018-05-23T11:22:08.504Z,3.63
2018-05-23T11:24:35.264Z,5.40
2018-05-23T11:27:02.053Z,2.80
2018-05-23T11:29:28.824Z,3.00
2018-05-23T11:31:55.600Z,3.73
2018-05-23T11:34:22.368Z,4.80
2018-05-23T11:36:49.144Z,5.30
2018-05-23T11:39:15.912Z,4.43
2018-05-23T11:41:42.727Z,2.60
2018-05-23T11:44:09.483Z,7.40
2018-05-23T11:46:36.261Z,4.40
2018-05-23T11:49:03.055Z,9.63
2018-05-23T11:51:29.831Z,5.67
2018-05-23T11:53:56.657Z,4.83
2018-05-23T11:56:23.815Z,7.50
2018-05-23T11:58:50.591Z,4.30
2018-05-23T12:01:17.342Z,8.13
2018-05-23T12:03:44.117Z,5.73
2018-05-23T12:06:10.887Z,8.23
2018-05-23T12:08:38.018Z,4.50
2018-05-23T12:11:04.816Z,3.73
2018-05-23T12:13:31.582Z,4.00
2018-05-23T12:15:58.949Z,4.60
2018-05-23T12:18:25.742Z,7.30
2018-05-23T12:20:52.485Z,2.40
2018-05-23T12:23:19.271Z,3.10
2018-05-23T12:25:46.015Z,3.37
2018-05-23T12:28:12.808Z,5.63
2018-05-23T12:30:39.552Z,3.00
2018-05-23T12:33:06.330Z,4.90
2018-05-23T12:35:33.075Z,3.30
2018-05-23T12:37:59.838Z,6.33
2018-05-23T12:40:27.238Z,9.70
2018-05-23T12:42:53.992Z,3.80
2018-05-23T12:45:20.798Z,2.83
2018-05-23T12:47:47.566Z,4.03
2018-05-23T12:50:14.340Z,4.80
2018-05-23T12:52:41.090Z,2.83
2018-05-23T12:55:07.867Z,7.00
2018-05-23T12:57:34.640Z,4.80
2018-05-23T13:00:01.405Z,2.73
2018-05-23T13:02:28.152Z,3.70
2018-05-23T13:04:54.958Z,6.60
2018-05-23T13:07:21.721Z,3.33
2018-05-23T13:09:48.776Z,3.70
2018-05-23T13:12:15.538Z,3.10
2018-05-23T13:14:42.328Z,6.07
2018-05-23T13:17:09.069Z,2.60
2018-05-23T13:19:35.872Z,3.77
2018-05-23T13:22:02.659Z,6.97
2018-05-23T13:24:29.484Z,3.30
2018-05-23T13:26:56.265Z,3.40
2018-05-23T13:29:23.046Z,7.03
2018-05-23T13:31:50.533Z,3.07
2018-05-23T13:34:17.279Z,3.00
2018-05-23T13:36:44.064Z,5.73
2018-05-23T13:39:10.845Z,4.33
2018-05-23T13:41:37.633Z,3.93
2018-05-23T13:44:04.427Z,3.23
2018-05-23T13:46:31.217Z,6.00
2018-05-23T13:48:58.100Z,12.50
2018-05-23T13:51:25.587Z,3.03
2018-05-23T13:53:52.336Z,3.40
2018-05-23T13:56:19.225Z,3.30
2018-05-23T13:58:45.982Z,2.80
2018-05-23T14:01:12.780Z,11.70
2018-05-23T14:03:39.529Z,4.13
2018-05-23T14:06:06.319Z,10.93
2018-05-23T14:08:33.066Z,8.23
2018-05-23T14:11:00.292Z,3.77
2018-05-23T14:13:27.084Z,4.60
2018-05-23T14:15:53.850Z,2.73
2018-05-23T14:18:20.648Z,3.20
2018-05-23T14:20:47.424Z,7.70
2018-05-23T14:23:14.201Z,3.60
2018-05-23T14:25:40.980Z,3.23
2018-05-23T14:28:07.748Z,3.07
2018-05-23T14:30:34.497Z,4.37
2018-05-23T14:33:01.643Z,3.70
2018-05-23T14:35:28.423Z,3.80
2018-05-23T14:37:55.219Z,9.33
2018-05-23T14:40:21.958Z,5.23
2018-05-23T14:42:48.743Z,3.50
2018-05-23T14:45:15.501Z,4.00
2018-05-23T14:47:42.265Z,8.33
2018-05-23T14:50:09.093Z,6.40
2018-05-23T14:52:35.830Z,4.63
2018-05-23T14:55:02.601Z,4.50
2018-05-23T14:57:29.401Z,3.37
2018-05-23T14:59:56.132Z,3.40
2018-05-23T15:02:22.904Z,3.40
2018-05-23T15:04:49.686Z,2.97
2018-05-23T15:07:16.479Z,7.53
2018-05-23T15:09:43.272Z,4.93
2018-05-23T15:12:10.331Z,8.47
2018-05-23T15:14:37.110Z,3.47
2018-05-23T15:17:03.879Z,4.10
2018-05-23T15:19:30.671Z,6.47
2018-05-23T15:21:57.464Z,4.37
2018-05-23T15:24:24.255Z,7.10
2018-05-23T15:26:50.997Z,3.40
2018-05-23T15:29:17.781Z,5.67
2018-05-23T15:31:44.513Z,5.47
2018-05-23T15:34:11.333Z,4.50
2018-05-23T15:36:38.930Z,3.60
2018-05-23T15:39:06.403Z,10.20
2018-05-23T15:41:33.949Z,3.60
2018-05-23T15:44:00.715Z,3.67
2018-05-23T15:46:27.501Z,4.57
2018-05-23T15:48:54.282Z,3.37
2018-05-23T15:51:21.422Z,6.30
2018-05-23T15:53:48.189Z,3.83
2018-05-23T15:56:14.997Z,5.27
2018-05-23T15:58:41.741Z,7.00
2018-05-23T16:01:08.541Z,3.60
2018-05-23T16:03:35.320Z,4.33
2018-05-23T16:06:02.203Z,8.03
2018-05-23T16:08:28.967Z,4.33
2018-05-23T16:10:55.753Z,3.03
2018-05-23T16:13:22.513Z,5.90
2018-05-23T16:15:49.315Z,3.63
2018-05-23T16:18:16.065Z,9.10
2018-05-23T16:20:42.967Z,4.63
2018-05-23T16:23:09.675Z,4.17
2018-05-23T16:25:36.474Z,3.03
2018-05-23T16:28:03.264Z,4.67
2018-05-23T16:30:30.045Z,3.13
2018-05-23T16:32:56.815Z,6.40
2018-05-23T16:35:23.587Z,3.60
2018-05-23T16:37:50.389Z,3.07
2018-05-23T16:40:17.132Z,9.33
2018-05-23T16:42:43.950Z,5.40
2018-05-23T16:45:10.749Z,2.80
2018-05-23T16:47:37.519Z,7.53
2018-05-23T16:50:04.315Z,5.17
2018-05-23T16:52:31.107Z,3.47
2018-05-23T16:54:57.864Z,3.50
2018-05-23T16:57:24.660Z,4.47
2018-05-23T16:59:51.416Z,3.30
2018-05-23T17:02:18.212Z,2.70
2018-05-23T17:04:44.972Z,5.13
2018-05-23T17:07:11.769Z,3.50
2018-05-23T17:09:38.505Z,2.93
2018-05-23T17:12:05.605Z,5.47
2018-05-23T17:14:32.379Z,8.67
2018-05-23T17:16:59.172Z,5.80
2018-05-23T17:19:25.956Z,3.40
2018-05-23T17:21:52.756Z,6.00
2018-05-23T17:24:19.522Z,5.17
2018-05-23T17:26:46.316Z,13.57
2018-05-23T17:29:13.129Z,2.87
2018-05-23T17:31:39.887Z,3.87
2018-05-23T17:34:06.688Z,3.23
2018-05-23T17:36:33.445Z,4.70
2018-05-23T17:39:00.507Z,5.77
2018-05-23T17:41:27.271Z,9.60
2018-05-23T17:43:54.048Z,7.83
2018-05-23T17:46:20.788Z,7.27
2018-05-23T17:48:47.625Z,7.10
2018-05-23T17:51:14.391Z,6.90
2018-05-23T17:53:42.171Z,4.57
2018-05-23T17:56:08.978Z,5.73
2018-05-23T17:58:35.765Z,6.00
2018-05-23T18:01:02.535Z,5.53
2018-05-23T18:03:29.313Z,4.10
2018-05-23T18:05:56.204Z,5.27
2018-05-23T18:08:22.949Z,3.40
2018-05-23T18:10:49.753Z,3.30
2018-05-23T18:13:16.528Z,3.63
2018-05-23T18:15:43.309Z,4.00
2018-05-23T18:18:10.048Z,6.97
2018-05-23T18:20:36.922Z,4.60
2018-05-23T18:23:03.622Z,4.93
2018-05-23T18:25:30.624Z,3.63
2018-05-23T18:27:57.403Z,3.90
2018-05-23T18:30:24.189Z,7.90
2018-05-23T18:32:50.950Z,5.30
2018-05-23T18:35:17.729Z,8.13
2018-05-23T18:37:44.482Z,8.00
2018-05-23T18:40:11.263Z,3.27
2018-05-23T18:42:38.009Z,2.80
2018-05-23T18:45:04.790Z,4.53
2018-05-23T18:47:31.547Z,4.17
2018-05-23T18:49:58.361Z,5.73
2018-05-23T18:52:25.122Z,4.87
2018-05-23T18:54:51.922Z,3.13
2018-05-23T18:57:18.758Z,2.57
2018-05-23T18:59:45.501Z,3.60
2018-05-23T19:02:12.286Z,4.07
2018-05-23T19:04:39.053Z,3.87
2018-05-23T19:07:05.833Z,3.70
2018-05-23T19:09:32.596Z,2.90
2018-05-23T19:11:59.381Z,6.40
2018-05-23T19:14:26.109Z,5.00
2018-05-23T19:16:52.877Z,3.80
2018-05-23T19:19:19.784Z,3.47
2018-05-23T19:21:46.573Z,5.67
2018-05-23T19:24:24.062Z,4.40
2018-05-23T19:26:50.860Z,6.50
2018-05-23T19:29:17.619Z,4.10
2018-05-23T19:31:44.468Z,4.70
2018-05-23T19:34:11.588Z,3.97
2018-05-23T19:36:38.312Z,3.70
2018-05-23T19:39:05.084Z,3.63
2018-05-23T19:41:31.899Z,4.90
2018-05-23T19:43:58.672Z,3.17
2018-05-23T19:46:25.472Z,4.63
2018-05-23T19:48:52.259Z,3.63
2018-05-23T19:51:19.013Z,4.00
2018-05-23T19:53:46.229Z,6.00
2018-05-23T19:56:12.968Z,5.30
2018-05-23T19:58:39.752Z,5.93
2018-05-23T20:01:06.529Z,3.13
2018-05-23T20:03:33.320Z,3.27
2018-05-23T20:06:00.066Z,5.87
2018-05-23T20:08:26.849Z,4.30
2018-05-23T20:10:53.645Z,6.67
2018-05-23T20:13:20.466Z,4.03
2018-05-23T20:15:47.203Z,8.10
2018-05-23T20:18:14.696Z,3.70
2018-05-23T20:20:41.498Z,9.17
2018-05-23T20:23:08.262Z,4.10
2018-05-23T20:25:35.061Z,4.00
2018-05-23T20:28:01.856Z,5.60
2018-05-23T20:30:28.624Z,6.30
2018-05-23T20:32:55.430Z,4.00
2018-05-23T20:35:22.219Z,7.03
2018-05-23T20:37:49.769Z,4.77
2018-05-23T20:40:16.533Z,5.30
2018-05-23T20:42:43.279Z,6.20
2018-05-23T20:45:10.064Z,3.70
2018-05-23T20:47:36.842Z,5.50
2018-05-23T20:50:03.735Z,7.20
2018-05-23T20:52:30.493Z,5.07
2018-05-23T20:54:57.305Z,5.13
2018-05-23T20:57:24.661Z,5.93
2018-05-23T20:59:51.487Z,4.60
2018-05-23T21:02:18.290Z,5.70
2018-05-23T21:04:45.125Z,4.93
2018-05-23T21:07:11.877Z,7.60
2018-05-23T21:09:38.703Z,5.93
2018-05-23T21:12:05.457Z,10.20
2018-05-23T21:14:32.247Z,7.80
2018-05-23T21:16:59.000Z,8.40
2018-05-23T21:19:25.788Z,6.63
2018-05-23T21:21:52.540Z,5.67
2018-05-23T21:24:19.355Z,6.83
2018-05-23T21:26:46.129Z,5.50
2018-05-23T21:29:12.891Z,5.27
2018-05-23T21:31:39.668Z,4.90
2018-05-23T21:34:06.442Z,5.73
2018-05-23T21:36:33.255Z,4.90
2018-05-23T21:39:00.040Z,4.67
2018-05-23T21:41:26.849Z,10.10
2018-05-23T21:43:53.610Z,9.87
2018-05-23T21:46:20.433Z,7.10
2018-05-23T21:48:47.217Z,4.77
2018-05-23T21:51:14.021Z,6.70
2018-05-23T21:53:40.761Z,6.40
2018-05-23T21:56:07.597Z,5.80
2018-05-23T21:58:34.369Z,10.63
2018-05-23T22:01:01.181Z,8.03
2018-05-23T22:03:27.964Z,5.70
2018-05-23T22:05:54.761Z,4.70
2018-05-23T22:08:21.523Z,9.63
2018-05-23T22:10:48.311Z,5.53
2018-05-23T22:13:15.050Z,6.50
2018-05-23T22:15:41.851Z,6.93
2018-05-23T22:18:08.582Z,6.57
2018-05-23T22:20:35.326Z,9.87
2018-05-23T22:23:02.163Z,9.00
2018-05-23T22:25:28.936Z,6.03
2018-05-23T22:27:55.718Z,7.10
2018-05-23T22:30:22.467Z,6.20
2018-05-23T22:32:49.257Z,6.10
2018-05-23T22:35:16.020Z,6.77
2018-05-23T22:37:42.824Z,6.03
2018-05-23T22:40:09.592Z,8.77
2018-05-23T22:42:36.412Z,15.80
2018-05-23T22:45:03.188Z,24.93
2018-05-23T22:47:29.973Z,14.97
2018-05-23T22:49:56.721Z,13.00
2018-05-23T22:52:23.518Z,9.37
2018-05-23T22:54:50.281Z,6.20
2018-05-23T22:57:17.103Z,11.10
2018-05-23T22:59:43.842Z,9.30
2018-05-23T23:02:10.654Z,8.47
2018-05-23T23:04:37.423Z,7.70
2018-05-23T23:07:04.180Z,7.77
2018-05-23T23:09:30.971Z,6.13
2018-05-23T23:11:57.710Z,12.30
2018-05-23T23:14:24.499Z,7.23
2018-05-23T23:16:51.276Z,7.30
2018-05-23T23:19:18.067Z,7.90
2018-05-23T23:21:44.865Z,8.50
2018-05-23T23:24:11.653Z,8.03
2018-05-23T23:26:38.413Z,6.87
2018-05-23T23:29:05.178Z,9.63
2018-05-23T23:31:31.949Z,6.37
2018-05-23T23:33:58.749Z,5.90
2018-05-23T23:36:25.514Z,7.20
2018-05-23T23:38:52.305Z,9.70
2018-05-23T23:41:19.089Z,7.80
2018-05-23T23:43:45.870Z,11.23
2018-05-23T23:46:12.646Z,6.57
2018-05-23T23:48:39.408Z,6.27
2018-05-23T23:51:06.165Z,7.50
2018-05-23T23:53:32.980Z,7.20
2018-05-23T23:55:59.730Z,4.27
2018-05-23T23:58:26.516Z,5.47
